Time;durP1;ratioP1;P1;durP2;ratioP2;P2;SDS_P1;SDS_P2;PMS_P1;PMS_P2;Temp;Humidity;BMP_temperature;BMP_pressure;BME280_temperature;BME280_humidity;BME280_pressure;Samples;Min_cycle;Max_cycle;Signal;HPM_P1;HPM_P2
2021/12/04 00:02:54;;;;;;;22.82;14.23;;;;;;;1.39;60.54;99456.66;2102749;84;29529;-57
2021/12/04 00:06:02;;;;;;;19.42;10.68;;;;;;;1.37;60.46;99459.36;2097165;84;31413;-60
2021/12/04 00:09:04;;;;;;;23.07;12.40;;;;;;;1.35;60.49;99455.42;2080233;85;33226;-60
2021/12/04 00:12:05;;;;;;;26.77;15.53;;;;;;;1.34;60.51;99455.47;2081315;85;29720;-60
2021/12/04 00:15:08;;;;;;;31.07;18.60;;;;;;;1.35;60.50;99452.78;2081425;85;27690;-58
2021/12/04 00:18:10;;;;;;;38.20;22.42;;;;;;;1.35;60.51;99449.29;2080279;85;29404;-60
2021/12/04 00:21:11;;;;;;;32.25;18.60;;;;;;;1.35;60.48;99443.55;2081639;85;32244;-58
2021/12/04 00:24:13;;;;;;;70.67;37.55;;;;;;;1.35;60.53;99441.38;2081090;85;33023;-57
2021/12/04 00:27:15;;;;;;;59.73;32.80;;;;;;;1.36;60.50;99432.55;2079694;85;30532;-61
2021/12/04 00:30:16;;;;;;;41.02;23.67;;;;;;;1.34;60.46;99425.98;2081198;85;27683;-59
2021/12/04 00:33:21;;;;;;;35.08;21.73;;;;;;;1.33;60.51;99418.97;2081543;85;29833;-60
2021/12/04 00:49:39;;;;;;;42.50;22.07;;;;;;;1.17;60.70;99409.72;2053040;85;29924;-56
2021/12/04 00:52:41;;;;;;;27.05;13.85;;;;;;;1.14;60.75;99403.22;2071679;85;31287;-56
2021/12/04 00:55:43;;;;;;;26.30;15.88;;;;;;;1.11;60.78;99403.30;2070796;85;34175;-55
2021/12/04 00:58:45;;;;;;;29.87;14.83;;;;;;;1.08;60.78;99406.00;2063741;85;30583;-56
2021/12/04 01:01:47;;;;;;;23.55;13.38;;;;;;;1.04;60.80;99395.99;2071863;85;27683;-56
2021/12/04 01:04:50;;;;;;;28.17;15.53;;;;;;;1.03;60.89;99389.84;2071226;85;29533;-56
2021/12/04 01:07:52;;;;;;;26.17;14.23;;;;;;;1.01;60.89;99386.37;2108590;83;30699;-57
2021/12/04 01:10:54;;;;;;;20.25;10.28;;;;;;;1.03;60.92;99388.98;2120778;83;33728;-55
2021/12/04 01:13:56;;;;;;;36.20;18.82;;;;;;;1.03;60.94;99378.44;2124169;83;30293;-57
2021/12/04 01:16:58;;;;;;;48.28;24.63;;;;;;;1.05;60.94;99385.39;2114951;83;27599;-58
2021/12/04 01:20:07;;;;;;;46.88;27.27;;;;;;;1.07;60.87;99378.78;2124494;83;28762;-62
2021/12/04 01:23:07;;;;;;;21.73;12.65;;;;;;;1.08;60.93;99370.40;2122894;83;31045;-58
2021/12/04 01:26:09;;;;;;;41.58;26.52;;;;;;;1.08;60.81;99373.89;2117750;83;34120;-56
2021/12/04 01:29:11;;;;;;;22.37;13.25;;;;;;;1.10;60.89;99376.03;2125986;83;29170;-63
2021/12/04 01:32:13;;;;;;;18.60;12.13;;;;;;;1.12;60.84;99363.67;2110412;83;27497;-68
2021/12/04 01:35:15;;;;;;;14.93;9.93;;;;;;;1.13;60.89;99361.45;2121108;83;29315;-67
2021/12/04 01:38:16;;;;;;;16.10;9.30;;;;;;;1.16;60.81;99356.57;2126351;83;32276;-67
2021/12/04 01:41:18;;;;;;;18.00;11.43;;;;;;;1.17;60.80;99354.31;2124482;83;33334;-56
2021/12/04 01:44:21;;;;;;;14.45;8.48;;;;;;;1.19;60.78;99350.75;2117470;83;29724;-56
2021/12/04 01:47:22;;;;;;;14.20;7.53;;;;;;;1.21;60.68;99350.70;2115897;83;27730;-55
2021/12/04 01:50:25;;;;;;;10.93;6.85;;;;;;;1.20;60.61;99343.25;2133432;82;28768;-58
2021/12/04 01:53:27;;;;;;;10.68;6.55;;;;;;;1.23;60.58;99336.16;2107805;84;32236;-58
2021/12/04 01:56:33;;;;;;;10.48;6.78;;;;;;;1.24;60.63;99335.27;2133017;83;33642;-60
2021/12/04 01:59:35;;;;;;;10.32;6.95;;;;;;;1.25;60.56;99330.36;2107855;84;29326;-59
2021/12/04 02:02:38;;;;;;;13.10;7.42;;;;;;;1.27;60.50;99328.55;2133571;83;28227;-59
2021/12/04 02:05:41;;;;;;;11.18;6.85;;;;;;;1.28;60.60;99322.37;2107281;84;28688;-58
2021/12/04 02:08:44;;;;;;;13.18;7.10;;;;;;;1.29;60.43;99318.39;2133305;83;31037;-60
2021/12/04 02:11:46;;;;;;;11.20;7.15;;;;;;;1.31;60.39;99321.86;2107763;84;32972;-61
2021/12/04 02:14:51;;;;;;;11.68;7.40;;;;;;;1.35;60.51;99322.63;2085322;84;30459;-59
2021/12/04 02:17:53;;;;;;;14.55;7.10;;;;;;;1.34;60.43;99316.47;2133185;83;27657;-59
2021/12/04 02:20:54;;;;;;;13.30;6.97;;;;;;;1.38;60.51;99313.31;2077271;85;28521;-58
2021/12/04 02:23:56;;;;;;;10.93;7.15;;;;;;;1.40;60.48;99304.91;2085986;85;32263;-58
2021/12/04 02:27:01;;;;;;;13.58;6.87;;;;;;;1.42;60.47;99298.25;2071672;85;33012;-61
2021/12/04 02:30:10;;;;;;;13.60;6.78;;;;;;;1.43;60.44;99292.91;2071498;85;30609;-58
2021/12/04 02:33:12;;;;;;;8.68;6.62;;;;;;;1.45;60.41;99290.25;2104992;84;27664;-57
2021/12/04 02:36:14;;;;;;;13.28;6.67;;;;;;;1.46;60.51;99300.75;2104246;84;28720;-65
2021/12/04 02:39:25;;;;;;;12.45;7.00;;;;;;;1.49;60.47;99294.55;2105053;84;30867;-63
2021/12/04 02:42:30;;;;;;;13.88;6.97;;;;;;;1.49;60.31;99287.47;2105004;84;34049;-57
2021/12/04 02:45:32;;;;;;;12.55;7.00;;;;;;;1.49;60.37;99278.70;2104795;84;28865;-57
2021/12/04 02:48:34;;;;;;;12.28;6.37;;;;;;;1.51;60.37;99272.90;2099026;84;27813;-65
2021/12/04 02:51:36;;;;;;;11.83;6.17;;;;;;;1.52;60.38;99273.31;2086237;85;29307;-59
2021/12/04 02:54:38;;;;;;;10.13;6.20;;;;;;;1.54;60.33;99270.65;2086883;85;31941;-59
2021/12/04 02:57:44;;;;;;;16.65;6.37;;;;;;;1.56;60.33;99264.88;2136572;82;34204;-58
2021/12/04 03:00:50;;;;;;;10.48;6.65;;;;;;;1.58;60.43;99265.23;2133437;82;30605;-60
2021/12/04 03:03:52;;;;;;;9.33;5.83;;;;;;;1.60;60.31;99262.53;2127807;82;27695;-58
2021/12/04 03:06:55;;;;;;;9.33;6.05;;;;;;;1.61;60.17;99252.38;2133244;82;29853;-61
2021/12/04 03:09:56;;;;;;;11.73;5.85;;;;;;;1.63;60.30;99256.72;2138233;82;31423;-59
2021/12/04 03:12:58;;;;;;;10.65;6.25;;;;;;;1.64;60.24;99250.98;2144497;82;34166;-59
2021/12/04 03:16:01;;;;;;;10.88;6.40;;;;;;;1.65;60.25;99249.62;2118356;82;30620;-59
2021/12/04 03:19:07;;;;;;;9.25;5.85;;;;;;;1.69;60.28;99252.15;2134288;82;27699;-58
2021/12/04 03:22:09;;;;;;;9.00;5.58;;;;;;;1.72;60.29;99246.78;2136850;82;28552;-59
2021/12/04 03:25:11;;;;;;;9.58;5.58;;;;;;;1.74;60.28;99234.41;2139266;82;31624;-59
2021/12/04 03:28:15;;;;;;;9.63;5.05;;;;;;;1.77;60.18;99231.67;2139200;82;33551;-58
2021/12/04 03:31:22;;;;;;;10.98;5.40;;;;;;;1.78;60.15;99235.58;2131359;82;29904;-64
2021/12/04 03:41:06;;;;;;;9.30;5.92;;;;;;;1.85;59.95;99230.11;2130765;82;31709;-59
2021/12/04 03:44:07;;;;;;;13.38;4.78;;;;;;;1.86;59.95;99226.56;2148034;82;32958;-59
2021/12/04 03:47:10;;;;;;;6.97;5.30;;;;;;;1.86;59.83;99219.96;2148004;82;29905;-58
2021/12/04 03:50:13;;;;;;;8.40;5.50;;;;;;;1.86;59.99;99215.53;2130716;81;27726;-55
2021/12/04 03:53:15;;;;;;;8.68;5.25;;;;;;;1.88;59.99;99213.70;2124989;83;28692;-55
2021/12/04 03:56:21;;;;;;;11.28;5.85;;;;;;;1.90;60.02;99217.16;2124536;83;32295;-55
2021/12/04 03:59:21;;;;;;;9.25;5.22;;;;;;;1.92;59.75;99221.07;2123839;83;33186;-57
2021/12/04 04:02:23;;;;;;;8.85;5.35;;;;;;;1.93;59.77;99218.84;2108251;84;29846;-58
2021/12/04 04:05:26;;;;;;;7.37;4.37;;;;;;;1.94;59.83;99213.52;2108511;84;27677;-59
2021/12/04 04:08:28;;;;;;;7.58;4.72;;;;;;;1.95;59.78;99217.02;2085890;85;29624;-57
2021/12/04 04:11:35;;;;;;;12.18;4.55;;;;;;;1.96;59.73;99211.70;2086544;85;32554;-59
2021/12/04 04:14:35;;;;;;;9.63;5.08;;;;;;;1.96;59.55;99208.18;2086774;85;32969;-58
2021/12/04 04:17:42;;;;;;;8.85;5.15;;;;;;;1.93;59.64;99202.99;2086395;85;30528;-65
2021/12/04 04:20:42;;;;;;;9.45;5.53;;;;;;;1.93;59.55;99208.27;2109032;84;28038;-71
2021/12/04 04:23:44;;;;;;;11.65;6.08;;;;;;;1.92;59.72;99206.10;2065177;86;29679;-70
2021/12/04 04:26:46;;;;;;;10.00;5.50;;;;;;;1.93;59.58;99200.34;2086675;84;32003;-67
2021/12/04 04:29:48;;;;;;;14.53;5.60;;;;;;;1.90;59.52;99196.04;2086797;85;34129;-62
2021/12/04 04:32:51;;;;;;;8.60;5.53;;;;;;;1.91;59.47;99191.61;2087036;85;29400;-68
2021/12/04 04:36:09;;;;;;;8.35;5.28;;;;;;;1.91;59.59;99195.13;2087584;85;27616;-67
2021/12/04 05:11:58;;;;;;;7.95;4.87;;;;;;;1.72;59.40;99171.09;2105327;83;28839;-56
2021/12/04 05:14:56;;;;;;;12.45;5.00;;;;;;;1.70;59.32;99165.44;2121985;83;31424;-72
2021/12/04 05:18:06;;;;;;;8.33;5.03;;;;;;;1.66;59.26;99165.53;2118186;83;33118;-71
2021/12/04 05:21:04;;;;;;;11.15;5.35;;;;;;;1.65;59.35;99161.63;2117247;83;29883;-56
2021/12/04 05:24:06;;;;;;;12.45;5.58;;;;;;;1.65;59.30;99164.27;2124400;83;27717;-56
2021/12/04 05:27:08;;;;;;;13.80;5.92;;;;;;;1.64;59.24;99160.78;2123788;83;28951;-68
2021/12/04 05:30:11;;;;;;;11.55;5.62;;;;;;;1.63;59.16;99155.53;2125850;83;31546;-62
2021/12/04 05:33:12;;;;;;;10.88;5.60;;;;;;;1.63;59.19;99161.69;2125066;83;33762;-71
2021/12/04 05:36:14;;;;;;;14.05;6.22;;;;;;;1.63;59.19;99160.81;2112407;83;29240;-58
2021/12/04 05:39:16;;;;;;;14.83;5.72;;;;;;;1.61;59.26;99157.34;2115281;83;28183;-57
2021/12/04 05:42:18;;;;;;;11.78;5.80;;;;;;;1.59;59.27;99157.84;2124795;83;29060;-58
2021/12/04 05:45:25;;;;;;;10.32;5.15;;;;;;;1.59;59.31;99161.38;2118186;83;31191;-58
2021/12/04 05:48:33;;;;;;;10.72;6.03;;;;;;;1.57;59.21;99163.19;2105434;83;33336;-58
2021/12/04 05:51:47;;;;;;;9.78;5.03;;;;;;;1.58;59.24;99162.28;2141107;83;29215;-56
2021/12/04 05:57:41;;;;;;;6.17;4.35;;;;;;;1.59;59.23;99167.09;2117768;84;28454;-57
2021/12/04 06:00:43;;;;;;;11.33;5.15;;;;;;;1.58;59.15;99163.59;2145399;82;32164;-57
2021/12/04 06:03:45;;;;;;;11.35;5.65;;;;;;;1.58;59.17;99156.13;2115862;84;34256;-57
2021/12/04 06:06:47;;;;;;;10.25;5.45;;;;;;;1.57;59.10;99156.59;2145524;83;30193;-56
2021/12/04 06:09:49;;;;;;;11.75;5.40;;;;;;;1.58;59.11;99160.96;2085448;85;27688;-57
2021/12/04 06:12:51;;;;;;;10.20;5.00;;;;;;;1.57;59.03;99155.74;2124124;83;29534;-58
2021/12/04 06:15:54;;;;;;;8.88;5.12;;;;;;;1.57;59.08;99159.23;2124096;83;31624;-59
2021/12/04 06:18:59;;;;;;;7.92;5.35;;;;;;;1.57;59.02;99161.87;2144737;83;34129;-58
2021/12/04 06:25:24;;;;;;;12.35;6.08;;;;;;;1.56;59.04;99157.50;2144876;83;27831;-58
2021/12/04 06:28:24;;;;;;;12.37;6.37;;;;;;;1.55;59.00;99156.24;2084500;85;30204;-59
2021/12/04 06:31:27;;;;;;;9.68;5.37;;;;;;;1.53;58.91;99146.19;2117181;84;31515;-59
2021/12/04 06:34:30;;;;;;;8.68;5.00;;;;;;;1.52;58.93;99146.63;2117088;84;33985;-58
2021/12/04 06:37:33;;;;;;;13.28;5.70;;;;;;;1.53;58.86;99149.67;2117047;84;29998;-60
2021/12/04 06:40:36;;;;;;;11.88;6.28;;;;;;;1.51;58.74;99144.45;2144484;83;28223;-57
2021/12/04 06:43:43;;;;;;;9.23;5.85;;;;;;;1.49;58.81;99141.00;2115635;84;28733;-57
2021/12/04 06:46:45;;;;;;;9.60;5.80;;;;;;;1.49;58.69;99140.15;2144895;83;31302;-58
2021/12/04 06:49:46;;;;;;;10.50;5.78;;;;;;;1.48;58.78;99137.95;2105319;84;34182;-56
2021/12/04 06:52:49;;;;;;;14.30;6.72;;;;;;;1.46;58.77;99138.92;2045273;87;30574;-56
2021/12/04 06:55:54;;;;;;;10.18;6.58;;;;;;;1.42;58.74;99135.95;2074765;85;28102;-56
2021/12/04 06:58:55;;;;;;;10.40;6.87;;;;;;;1.40;58.67;99137.34;2073877;85;28710;-56
2021/12/04 07:01:57;;;;;;;14.90;7.67;;;;;;;1.38;58.62;99131.67;2074291;85;31508;-58
2021/12/04 07:04:59;;;;;;;11.03;7.33;;;;;;;1.35;58.72;99129.54;2074649;85;34188;-57
2021/12/04 07:08:01;;;;;;;14.60;8.00;;;;;;;1.34;58.76;99123.85;2073881;85;30527;-62
2021/12/04 07:11:05;;;;;;;14.30;7.28;;;;;;;1.34;58.84;99118.58;2074504;85;27717;-58
2021/12/04 07:14:07;;;;;;;14.58;7.92;;;;;;;1.35;58.79;99123.41;2074868;85;29120;-58
2021/12/04 07:17:10;;;;;;;11.63;7.33;;;;;;;1.35;58.80;99124.27;2075086;85;31028;-59
2021/12/04 07:20:12;;;;;;;13.15;6.90;;;;;;;1.36;58.86;99122.03;2073276;85;33757;-59
2021/12/04 07:23:16;;;;;;;11.25;7.20;;;;;;;1.41;58.85;99123.67;2072727;85;27721;-58
2021/12/04 07:26:19;;;;;;;13.48;7.67;;;;;;;1.46;58.97;99131.84;2070987;84;27748;-58
2021/12/04 07:29:21;;;;;;;11.20;7.58;;;;;;;1.51;58.94;99130.38;2073457;85;29417;-58
2021/12/04 07:32:25;;;;;;;13.00;7.53;;;;;;;1.57;58.91;99127.55;2074388;85;32311;-60
2021/12/04 07:35:27;;;;;;;10.70;7.10;;;;;;;1.61;58.73;99119.95;2075091;85;32980;-57
2021/12/04 07:38:29;;;;;;;11.70;7.35;;;;;;;1.66;58.77;99123.28;2073780;85;30322;-59
2021/12/04 07:41:31;;;;;;;11.05;6.78;;;;;;;1.72;58.77;99118.30;2073149;85;27681;-56
2021/12/04 07:44:33;;;;;;;13.43;7.87;;;;;;;1.76;58.61;99116.41;2072971;85;29005;-56
2021/12/04 07:47:35;;;;;;;13.13;8.10;;;;;;;1.83;58.64;99112.63;2073700;85;32200;-55
2021/12/04 07:50:37;;;;;;;11.43;7.35;;;;;;;1.90;58.53;99114.64;2075507;85;34171;-59
2021/12/04 07:53:39;;;;;;;15.53;7.00;;;;;;;1.98;58.52;99117.87;2074694;85;29758;-50
2021/12/04 07:56:41;;;;;;;10.98;7.00;;;;;;;2.05;58.62;99112.80;2093261;83;27887;-50
2021/12/04 07:59:43;;;;;;;12.98;7.78;;;;;;;2.14;58.41;99105.02;2113098;83;29897;-60
2021/12/04 08:02:46;;;;;;;11.93;7.62;;;;;;;2.20;58.19;99108.75;2116547;83;32375;-55
2021/12/04 08:05:49;;;;;;;13.28;8.43;;;;;;;2.26;58.35;99111.20;2115029;83;34089;-50
2021/12/04 08:08:53;;;;;;;10.05;7.12;;;;;;;2.36;58.16;99105.57;2113667;83;29714;-49
2021/12/04 08:11:54;;;;;;;17.70;11.63;;;;;;;2.43;58.14;99105.30;2125475;83;27732;-50
2021/12/04 08:14:56;;;;;;;19.07;11.53;;;;;;;2.53;58.08;99109.80;2126630;83;29963;-61
2021/12/04 08:17:58;;;;;;;23.27;9.73;;;;;;;2.60;57.58;99099.86;2126697;83;32319;-55
2021/12/04 08:21:00;;;;;;;47.48;14.78;;;;;;;2.68;57.76;99103.11;2126890;83;34415;-52
2021/12/04 08:24:06;;;;;;;21.82;10.55;;;;;;;2.77;57.76;99102.34;2121171;82;30645;-50
2021/12/04 08:27:09;;;;;;;15.23;9.45;;;;;;;2.86;57.67;99095.41;2105206;83;27597;-55
2021/12/04 08:30:17;;;;;;;15.70;8.03;;;;;;;2.97;57.54;99098.98;2123903;82;28693;-56
2021/12/04 08:33:18;;;;;;;12.50;7.72;;;;;;;3.06;57.08;99097.29;2119281;82;31126;-57
2021/12/04 08:36:24;;;;;;;14.35;7.80;;;;;;;3.12;57.05;99101.03;2144211;82;34172;-50
2021/12/04 08:39:25;;;;;;;;;;;;;;;3.21;56.81;99100.27;2093451;84;29410;-53
2021/12/04 08:42:27;;;;;;;10.95;6.03;;;;;;;3.28;56.60;99095.99;2129216;82;27670;-53
2021/12/04 08:45:31;;;;;;;13.43;6.83;;;;;;;3.33;56.51;99094.04;2117620;82;29267;-63
2021/12/04 08:48:35;;;;;;;8.48;5.45;;;;;;;3.41;56.25;99095.06;2104900;84;28185;-58
2021/12/04 08:51:37;;;;;;;10.10;6.35;;;;;;;3.49;56.18;99094.75;2129802;83;34187;-58
2021/12/04 08:54:39;;;;;;;10.28;5.15;;;;;;;3.54;55.42;99092.79;2112922;82;29643;-71
2021/12/04 08:57:42;;;;;;;14.93;6.78;;;;;;;3.58;55.51;99094.36;2142234;83;27597;-70
2021/12/04 09:01:01;;;;;;;11.43;7.20;;;;;;;3.65;55.26;99094.97;2123636;83;28688;-62
2021/12/04 09:04:14;;;;;;;10.30;5.75;;;;;;;3.71;54.99;99098.71;2121072;83;31915;-55
2021/12/04 09:07:19;;;;;;;9.70;5.45;;;;;;;3.76;54.83;99087.92;2121352;83;32981;-52
2021/12/04 09:10:22;;;;;;;11.18;5.50;;;;;;;3.82;54.81;99085.03;2123039;83;29491;-53
2021/12/04 09:13:24;;;;;;;12.53;6.75;;;;;;;3.90;54.65;99083.38;2123351;83;28033;-50
2021/12/04 09:16:26;;;;;;;16.85;6.03;;;;;;;3.99;54.09;99084.30;2124146;83;29884;-51
2021/12/04 09:19:29;;;;;;;8.55;4.50;;;;;;;4.08;54.20;99078.63;2123088;82;31137;-49
2021/12/04 09:22:34;;;;;;;8.55;4.17;;;;;;;4.20;53.98;99086.53;2130070;82;33005;-53
2021/12/04 09:25:38;;;;;;;5.05;3.35;;;;;;;4.29;53.59;99076.44;2124280;83;30517;-50
2021/12/04 09:31:57;;;;;;;9.50;4.08;;;;;;;4.50;53.00;99070.20;2146073;82;29704;-51
2021/12/04 10:17:58;;;;;;;10.17;4.57;;;;;;;5.22;49.31;99010.71;2093418;82;27820;-56
2021/12/04 10:21:00;;;;;;;9.93;4.75;;;;;;;5.26;49.16;99006.11;2120188;83;29458;-62
2021/12/04 10:24:07;;;;;;;8.90;4.58;;;;;;;5.30;48.81;99005.88;2104395;83;31158;-59
2021/12/04 10:33:47;;;;;;;13.83;6.28;;;;;;;5.32;48.84;98996.05;2103272;84;27675;-58
2021/12/04 10:36:48;;;;;;;13.22;5.95;;;;;;;5.29;48.79;98999.33;2097785;83;28548;-75
2021/12/04 10:40:01;;;;;;;11.78;5.67;;;;;;;5.25;48.93;98997.30;2126655;83;32267;-58
2021/12/04 10:43:07;;;;;;;8.80;5.47;;;;;;;5.23;48.44;98996.95;2126451;83;34140;-68
2021/12/04 10:46:14;;;;;;;12.28;6.35;;;;;;;5.17;48.32;98996.80;2126497;83;29335;-69
2021/12/04 10:49:18;;;;;;;10.55;5.97;;;;;;;5.12;48.58;98997.02;2124762;83;27701;-71
2021/12/04 11:02:18;;;;;;;;;;;;;;;4.82;49.41;98985.63;2130135;83;30921;-71
2021/12/04 11:22:15;;;;;;;14.67;6.40;;;;;;;4.65;49.82;98975.78;2119979;84;27700;-52
2021/12/04 11:28:25;;;;;;;16.00;8.95;;;;;;;4.59;49.82;98974.77;2126879;83;31024;-68
2021/12/04 11:38:19;;;;;;;18.07;10.53;;;;;;;4.48;50.21;98970.41;2051108;86;27745;-57
2021/12/04 11:41:36;;;;;;;16.12;10.00;;;;;;;4.45;50.38;98968.77;2051401;84;30148;-58
2021/12/04 11:45:03;;;;;;;18.90;11.08;;;;;;;4.43;50.35;98967.97;2051477;86;31734;-57
2021/12/04 11:47:49;;;;;;;20.95;11.68;;;;;;;4.35;50.52;98965.67;2029434;86;33669;-52
2021/12/04 11:50:52;;;;;;;20.75;10.25;;;;;;;4.37;50.82;98965.14;2052646;85;29387;-60
2021/12/04 11:53:56;;;;;;;19.17;11.33;;;;;;;4.42;51.03;98962.27;2051892;86;27820;-57
2021/12/04 11:57:02;;;;;;;21.12;13.03;;;;;;;4.45;51.06;98960.80;2050767;86;29634;-53
2021/12/04 12:00:26;;;;;;;26.12;14.60;;;;;;;4.48;51.15;98962.00;2050647;85;31088;-56
2021/12/04 12:03:32;;;;;;;27.58;15.95;;;;;;;4.52;51.26;98958.28;2051100;86;34103;-55
2021/12/04 12:06:44;;;;;;;28.40;13.43;;;;;;;4.54;51.24;98952.44;2050656;86;29386;-59
2021/12/04 12:09:50;;;;;;;22.77;12.40;;;;;;;4.56;51.35;98944.41;2109557;83;27686;-56
2021/12/04 12:13:05;;;;;;;28.80;12.65;;;;;;;4.60;51.63;98936.70;2121087;83;28821;-55
2021/12/04 12:16:07;;;;;;;22.27;11.75;;;;;;;4.63;51.32;98934.36;2108066;83;31891;-58
2021/12/04 12:19:15;;;;;;;17.77;10.08;;;;;;;4.60;51.19;98933.17;2092976;83;32973;-56
2021/12/04 12:22:38;;;;;;;19.55;11.20;;;;;;;4.55;51.08;98921.46;2082436;84;30117;-66
2021/12/04 12:25:58;;;;;;;22.65;11.00;;;;;;;4.53;50.85;98920.67;2022115;87;28283;-58
2021/12/04 12:32:34;;;;;;;19.37;9.75;;;;;;;4.56;51.10;98920.53;2022257;86;31470;-61
2021/12/04 12:39:13;;;;;;;21.10;9.13;;;;;;;4.68;50.79;98908.48;2041864;85;29742;-55
2021/12/04 12:42:28;;;;;;;17.77;8.48;;;;;;;4.73;50.21;98896.31;2042252;85;27671;-60
2021/12/04 12:45:34;;;;;;;;;;;;;;;4.76;50.53;98898.83;2038635;85;29526;-57
2021/12/04 12:48:51;;;;;;;17.65;9.70;;;;;;;4.81;50.11;98898.99;2052366;85;31582;-57
2021/12/04 12:52:21;;;;;;;19.15;9.68;;;;;;;4.84;50.11;98896.65;2042831;85;33038;-58
2021/12/04 12:55:23;;;;;;;21.15;8.80;;;;;;;4.91;50.42;98892.77;1981826;88;29745;-69
2021/12/04 12:58:37;;;;;;;17.27;9.08;;;;;;;4.99;50.17;98895.89;2020561;87;28365;-67
2021/12/04 13:12:15;;;;;;;16.62;9.43;;;;;;;5.01;50.02;98867.48;2087627;83;30565;-58
2021/12/04 13:15:31;;;;;;;16.82;9.68;;;;;;;4.97;49.63;98863.26;2085799;83;27668;-61
2021/12/04 13:18:36;;;;;;;21.48;10.82;;;;;;;4.94;49.81;98871.84;2078726;83;29360;-61
2021/12/04 13:21:41;;;;;;;21.97;12.13;;;;;;;4.85;50.12;98863.88;2086290;83;31091;-58
2021/12/04 13:24:43;;;;;;;;;;;;;;;4.78;50.11;98860.66;2089783;84;33868;-56
2021/12/04 13:30:47;;;;;;;18.57;10.23;;;;;;;4.70;50.51;98856.22;2088307;84;27697;-64
2021/12/04 13:33:52;;;;;;;21.85;11.10;;;;;;;4.67;50.68;98854.55;2086263;85;30072;-59
2021/12/04 13:36:56;;;;;;;17.40;9.48;;;;;;;4.61;50.49;98849.57;2086262;85;31954;-55
2021/12/04 13:40:04;;;;;;;15.68;9.23;;;;;;;4.54;50.33;98852.11;2085522;85;33800;-57
2021/12/04 13:43:09;;;;;;;21.05;10.45;;;;;;;4.47;50.63;98855.53;2085850;85;29183;-58
2021/12/04 13:46:14;;;;;;;18.45;11.20;;;;;;;4.46;50.97;98858.27;2085633;83;27693;-58
2021/12/04 13:49:26;;;;;;;18.73;10.75;;;;;;;4.45;51.04;98850.77;2086426;83;28708;-56
2021/12/04 13:52:32;;;;;;;17.05;10.23;;;;;;;4.43;51.26;98847.80;2081080;83;31109;-57
2021/12/04 13:55:39;;;;;;;20.25;10.55;;;;;;;4.39;51.24;98839.11;2085387;83;33020;-65
2021/12/04 13:58:57;;;;;;;25.12;12.45;;;;;;;4.31;51.37;98838.16;2087486;83;29339;-70
2021/12/04 14:01:59;;;;;;;20.62;12.05;;;;;;;4.24;51.88;98842.05;2085733;83;27764;-57
2021/12/04 14:05:09;;;;;;;21.95;11.20;;;;;;;4.18;52.10;98843.20;2087634;83;29876;-59
2021/12/04 14:08:11;;;;;;;22.20;12.37;;;;;;;4.11;52.18;98848.38;2086271;83;31045;-69
2021/12/04 14:11:13;;;;;;;22.25;11.88;;;;;;;4.06;52.28;98843.30;2087385;83;32875;-69
2021/12/04 14:14:23;;;;;;;20.40;12.05;;;;;;;4.05;52.54;98848.20;2089279;83;30186;-53
2021/12/04 14:17:25;;;;;;;21.15;11.68;;;;;;;4.02;52.69;98848.34;2092392;84;28222;-62
2021/12/04 14:20:29;;;;;;;22.30;11.65;;;;;;;4.00;52.80;98843.57;2086540;85;29274;-53
2021/12/04 14:23:33;;;;;;;21.42;12.55;;;;;;;3.99;52.93;98850.28;2088962;85;30469;-59
2021/12/04 14:26:36;;;;;;;16.40;9.65;;;;;;;3.95;53.06;98850.89;2104405;83;33806;-63
2021/12/04 14:29:42;;;;;;;19.27;10.50;;;;;;;3.90;53.17;98851.56;2127751;82;28740;-61
2021/12/04 14:32:49;;;;;;;18.87;11.18;;;;;;;3.83;53.26;98855.41;2091394;85;27776;-64
2021/12/04 14:35:51;;;;;;;30.20;17.77;;;;;;;3.80;53.38;98848.47;2091839;82;29590;-56
2021/12/04 14:38:53;;;;;;;14.20;8.53;;;;;;;3.79;53.50;98850.27;2125797;82;31883;-58
2021/12/04 14:41:56;;;;;;;20.45;11.78;;;;;;;3.77;53.63;98843.30;2126587;83;33528;-62
2021/12/04 14:45:06;;;;;;;23.07;12.25;;;;;;;3.73;53.63;98837.30;2125216;82;30011;-61
2021/12/04 14:48:14;;;;;;;21.90;13.08;;;;;;;3.71;53.74;98835.66;2105993;82;27651;-69
2021/12/04 14:51:19;;;;;;;19.35;11.30;;;;;;;3.62;53.72;98839.58;2109641;82;29992;-61
2021/12/04 14:54:28;;;;;;;21.55;12.07;;;;;;;3.53;53.93;98834.67;2139996;81;31477;-56
2021/12/04 14:57:30;;;;;;;20.08;12.18;;;;;;;3.45;54.00;98832.37;2139405;82;33836;-63
2021/12/04 15:00:40;;;;;;;22.62;13.43;;;;;;;3.39;54.17;98835.30;2115752;82;29658;-64
2021/12/04 15:03:55;;;;;;;24.25;13.68;;;;;;;3.33;54.25;98841.70;2115416;82;28136;-59
2021/12/04 15:06:57;;;;;;;23.47;13.85;;;;;;;3.25;54.32;98837.22;2116925;82;29520;-62
2021/12/04 15:10:01;;;;;;;25.80;14.55;;;;;;;3.17;54.43;98842.37;2116690;82;31609;-60
2021/12/04 15:13:06;;;;;;;26.93;15.08;;;;;;;3.10;54.55;98842.25;2118067;82;33155;-65
2021/12/04 15:16:10;;;;;;;;;;;;;;;3.02;54.65;98843.02;2119297;82;29344;-62
2021/12/04 15:19:29;;;;;;;30.35;17.30;;;;;;;2.96;54.85;98841.50;2116438;82;27596;-66
2021/12/04 15:22:35;;;;;;;34.65;17.85;;;;;;;2.88;54.97;98837.02;2117794;82;29186;-62
2021/12/04 15:25:37;;;;;;;33.75;16.97;;;;;;;2.85;55.09;98839.78;2116298;82;31130;-61
2021/12/04 15:28:47;;;;;;;33.42;17.17;;;;;;;2.77;55.25;98838.77;2116857;82;33095;-64
2021/12/04 15:31:52;;;;;;;34.00;16.85;;;;;;;2.68;55.47;98837.37;2126717;82;29317;-67
2021/12/04 15:35:09;;;;;;;34.00;18.27;;;;;;;2.59;55.53;98835.08;2125048;82;28182;-65
2021/12/04 15:38:16;;;;;;;40.78;18.67;;;;;;;2.50;55.69;98842.08;2127255;82;28902;-66
2021/12/04 15:44:43;;;;;;;37.03;20.03;;;;;;;2.30;55.98;98841.08;2125845;82;33029;-66
2021/12/04 15:48:02;;;;;;;40.23;19.98;;;;;;;2.19;56.13;98839.33;2128807;82;29697;-68
2021/12/04 15:51:17;;;;;;;47.40;20.40;;;;;;;2.08;56.31;98842.38;2129623;82;28648;-65
2021/12/04 15:54:10;;;;;;;42.65;22.70;;;;;;;1.98;56.52;98845.83;2113418;82;28699;-63
2021/12/04 15:57:14;;;;;;;49.08;23.25;;;;;;;1.87;56.72;98838.31;2103229;83;31190;-61
2021/12/04 16:00:16;;;;;;;48.80;24.07;;;;;;;1.77;57.01;98841.75;2092410;83;33730;-69
2021/12/04 16:03:20;;;;;;;47.60;24.52;;;;;;;1.66;57.21;98834.70;2089345;84;30179;-70
2021/12/04 16:06:23;;;;;;;52.93;26.05;;;;;;;1.58;57.33;98834.11;2087278;84;27660;-68
2021/12/04 16:09:31;;;;;;;54.60;26.73;;;;;;;1.50;57.47;98838.34;2095190;83;29503;-71
2021/12/04 16:12:33;;;;;;;48.58;26.57;;;;;;;1.45;57.72;98839.84;2088986;84;32311;-72
2021/12/04 16:15:35;;;;;;;67.27;30.68;;;;;;;1.39;57.85;98836.13;2103449;83;33158;-72
2021/12/04 16:18:37;;;;;;;74.97;31.57;;;;;;;1.33;58.04;98845.09;2106236;83;29721;-69
2021/12/04 16:21:39;;;;;;;70.52;30.60;;;;;;;1.26;58.29;98842.28;2086111;83;27654;-75
2021/12/04 16:24:47;;;;;;;71.95;34.13;;;;;;;1.19;58.37;98849.55;2086994;83;29646;-73
2021/12/04 16:28:08;;;;;;;56.63;27.00;;;;;;;1.14;58.67;98844.88;2090102;83;31111;-65
2021/12/04 16:31:30;;;;;;;62.85;28.42;;;;;;;1.11;58.95;98849.41;2093665;83;33181;-61
2021/12/04 16:37:42;;;;;;;;;;;;;;;1.04;59.10;98850.08;2112829;83;27710;-61
2021/12/04 16:40:44;;;;;;;57.33;28.17;;;;;;;1.01;59.30;98856.30;2106508;83;28999;-76
2021/12/04 16:43:46;;;;;;;119.57;64.37;;;;;;;0.97;59.59;98856.47;2088319;83;31087;-66
2021/12/04 16:46:50;;;;;;;62.05;29.52;;;;;;;0.94;59.46;98857.87;2088128;83;34207;-58
2021/12/04 16:49:52;;;;;;;54.77;26.12;;;;;;;0.91;59.77;98855.75;2106065;83;30218;-62
2021/12/04 16:56:27;;;;;;;60.73;29.72;;;;;;;0.88;59.91;98851.05;2091682;83;29462;-69
2021/12/04 16:59:25;;;;;;;57.10;28.10;;;;;;;0.87;60.06;98859.42;2077997;84;31166;-67
2021/12/04 17:02:27;;;;;;;51.68;27.58;;;;;;;0.86;60.05;98852.86;2082251;84;33806;-64
2021/12/04 17:05:32;;;;;;;60.30;31.23;;;;;;;0.85;60.09;98842.79;2074425;84;30176;-66
2021/12/04 17:08:33;;;;;;;62.85;31.27;;;;;;;0.85;60.17;98853.77;2073654;85;27872;-66
2021/12/04 17:11:35;;;;;;;60.48;31.87;;;;;;;0.85;60.31;98855.09;2071794;85;29252;-72
2021/12/04 17:14:37;;;;;;;65.85;34.18;;;;;;;0.84;60.56;98855.56;2072632;84;31858;-72
2021/12/04 17:17:44;;;;;;;59.58;31.60;;;;;;;0.89;60.67;98852.77;2072228;85;33660;-66
2021/12/04 17:20:47;;;;;;;102.70;45.73;;;;;;;0.94;60.77;98851.29;2072049;85;30183;-70
2021/12/04 17:23:49;;;;;;;175.87;65.95;;;;;;;0.98;60.93;98845.89;2071220;84;28125;-72
2021/12/04 17:26:51;;;;;;;180.97;69.03;;;;;;;1.03;61.02;98845.25;2073556;84;29962;-62